sensor_id;sensor_type;location;lat;lon;timestamp;temperature;humidity
65824;SHT31;52585;47.566;19.056;2023-03-24T00:00:10;12.45;60.12
65824;SHT31;52585;47.566;19.056;2023-03-24T00:02:40;12.40;60.19
65824;SHT31;52585;47.566;19.056;2023-03-24T00:05:08;12.32;60.10
65824;SHT31;52585;47.566;19.056;2023-03-24T00:07:37;12.27;60.21
65824;SHT31;52585;47.566;19.056;2023-03-24T00:10:04;12.22;60.43
65824;SHT31;52585;47.566;19.056;2023-03-24T00:12:36;12.14;60.30
65824;SHT31;52585;47.566;19.056;2023-03-24T00:15:03;12.08;60.41
65824;SHT31;52585;47.566;19.056;2023-03-24T00:17:32;12.02;60.51
65824;SHT31;52585;47.566;19.056;2023-03-24T00:20:00;11.94;60.43
65824;SHT31;52585;47.566;19.056;2023-03-24T00:22:36;11.88;60.36
65824;SHT31;52585;47.566;19.056;2023-03-24T00:25:06;11.80;60.51
65824;SHT31;52585;47.566;19.056;2023-03-24T00:27:34;11.73;60.45
65824;SHT31;52585;47.566;19.056;2023-03-24T00:30:03;11.67;60.56
65824;SHT31;52585;47.566;19.056;2023-03-24T00:32:32;11.60;60.75
65824;SHT31;52585;47.566;19.056;2023-03-24T00:35:00;11.56;60.74
65824;SHT31;52585;47.566;19.056;2023-03-24T00:37:28;11.52;60.84
65824;SHT31;52585;47.566;19.056;2023-03-24T00:39:54;11.45;61.10
65824;SHT31;52585;47.566;19.056;2023-03-24T00:42:20;11.39;61.19
65824;SHT31;52585;47.566;19.056;2023-03-24T00:44:46;11.35;61.27
65824;SHT31;52585;47.566;19.056;2023-03-24T00:47:12;11.30;61.46
65824;SHT31;52585;47.566;19.056;2023-03-24T00:49:37;11.24;61.49
65824;SHT31;52585;47.566;19.056;2023-03-24T00:52:14;11.19;61.69
65824;SHT31;52585;47.566;19.056;2023-03-24T00:54:44;11.14;61.91
65824;SHT31;52585;47.566;19.056;2023-03-24T00:57:13;11.10;62.00
65824;SHT31;52585;47.566;19.056;2023-03-24T00:59:49;11.08;62.27
65824;SHT31;52585;47.566;19.056;2023-03-24T01:02:19;11.03;62.40
65824;SHT31;52585;47.566;19.056;2023-03-24T01:04:55;11.01;62.44
65824;SHT31;52585;47.566;19.056;2023-03-24T01:07:24;10.97;62.57
65824;SHT31;52585;47.566;19.056;2023-03-24T01:09:52;10.93;62.51
65824;SHT31;52585;47.566;19.056;2023-03-24T01:12:31;10.90;62.59
65824;SHT31;52585;47.566;19.056;2023-03-24T01:15:05;10.85;62.59
65824;SHT31;52585;47.566;19.056;2023-03-24T01:17:40;10.82;62.62
65824;SHT31;52585;47.566;19.056;2023-03-24T01:20:07;10.79;62.56
65824;SHT31;52585;47.566;19.056;2023-03-24T01:22:36;10.78;62.66
65824;SHT31;52585;47.566;19.056;2023-03-24T01:25:12;10.76;62.82
65824;SHT31;52585;47.566;19.056;2023-03-24T01:27:44;10.72;62.85
65824;SHT31;52585;47.566;19.056;2023-03-24T01:30:12;10.69;62.97
65824;SHT31;52585;47.566;19.056;2023-03-24T01:32:41;10.65;62.99
65824;SHT31;52585;47.566;19.056;2023-03-24T01:35:08;10.60;63.09
65824;SHT31;52585;47.566;19.056;2023-03-24T01:37:36;10.55;63.42
65824;SHT31;52585;47.566;19.056;2023-03-24T01:40:03;10.53;63.48
65824;SHT31;52585;47.566;19.056;2023-03-24T01:42:34;10.50;63.73
65824;SHT31;52585;47.566;19.056;2023-03-24T01:50:55;10.44;63.96
65824;SHT31;52585;47.566;19.056;2023-03-24T01:53:44;10.42;63.88
65824;SHT31;52585;47.566;19.056;2023-03-24T01:56:17;10.38;63.81
65824;SHT31;52585;47.566;19.056;2023-03-24T01:58:46;10.36;63.74
65824;SHT31;52585;47.566;19.056;2023-03-24T02:01:19;10.33;63.86
65824;SHT31;52585;47.566;19.056;2023-03-24T02:03:46;10.29;63.98
65824;SHT31;52585;47.566;19.056;2023-03-24T02:06:13;10.26;64.16
65824;SHT31;52585;47.566;19.056;2023-03-24T02:11:22;10.19;64.35
65824;SHT31;52585;47.566;19.056;2023-03-24T02:13:51;10.17;64.59
65824;SHT31;52585;47.566;19.056;2023-03-24T02:28:10;10.09;65.02
65824;SHT31;52585;47.566;19.056;2023-03-24T02:37:32;10.03;65.16
65824;SHT31;52585;47.566;19.056;2023-03-24T02:40:36;10.01;65.06
65824;SHT31;52585;47.566;19.056;2023-03-24T02:43:15;9.99;64.77
65824;SHT31;52585;47.566;19.056;2023-03-24T02:46:03;9.97;65.01
65824;SHT31;52585;47.566;19.056;2023-03-24T02:51:59;9.95;65.14
65824;SHT31;52585;47.566;19.056;2023-03-24T02:57:33;9.94;66.08
65824;SHT31;52585;47.566;19.056;2023-03-24T03:00:09;9.93;66.47
65824;SHT31;52585;47.566;19.056;2023-03-24T03:02:51;9.93;66.34
65824;SHT31;52585;47.566;19.056;2023-03-24T03:05:33;9.93;66.09
65824;SHT31;52585;47.566;19.056;2023-03-24T03:08:06;9.93;65.88
65824;SHT31;52585;47.566;19.056;2023-03-24T03:10:39;9.94;65.83
65824;SHT31;52585;47.566;19.056;2023-03-24T03:16:24;9.94;66.02
65824;SHT31;52585;47.566;19.056;2023-03-24T03:19:16;9.92;65.95
65824;SHT31;52585;47.566;19.056;2023-03-24T03:21:57;9.90;65.98
65824;SHT31;52585;47.566;19.056;2023-03-24T03:24:30;9.88;65.93
65824;SHT31;52585;47.566;19.056;2023-03-24T03:27:07;9.86;66.06
65824;SHT31;52585;47.566;19.056;2023-03-24T03:29:42;9.85;66.24
65824;SHT31;52585;47.566;19.056;2023-03-24T03:32:24;9.84;66.44
65824;SHT31;52585;47.566;19.056;2023-03-24T03:40:54;9.83;66.29
65824;SHT31;52585;47.566;19.056;2023-03-24T03:43:24;9.81;66.16
65824;SHT31;52585;47.566;19.056;2023-03-24T03:45:52;9.79;66.06
65824;SHT31;52585;47.566;19.056;2023-03-24T03:48:19;9.78;66.17
65824;SHT31;52585;47.566;19.056;2023-03-24T03:50:45;9.75;66.24
65824;SHT31;52585;47.566;19.056;2023-03-24T03:53:13;9.72;66.26
65824;SHT31;52585;47.566;19.056;2023-03-24T03:55:43;9.70;66.25
65824;SHT31;52585;47.566;19.056;2023-03-24T03:58:09;9.67;66.46
65824;SHT31;52585;47.566;19.056;2023-03-24T04:00:35;9.64;66.58
65824;SHT31;52585;47.566;19.056;2023-03-24T04:20:44;9.43;66.43
65824;SHT31;52585;47.566;19.056;2023-03-24T04:29:12;9.35;66.42
65824;SHT31;52585;47.566;19.056;2023-03-24T04:32:11;9.31;66.74
65824;SHT31;52585;47.566;19.056;2023-03-24T04:34:46;9.29;66.89
65824;SHT31;52585;47.566;19.056;2023-03-24T04:37:26;9.28;66.99
65824;SHT31;52585;47.566;19.056;2023-03-24T04:39:58;9.27;67.01
65824;SHT31;52585;47.566;19.056;2023-03-24T04:42:51;9.24;66.98
65824;SHT31;52585;47.566;19.056;2023-03-24T04:45:19;9.24;66.86
65824;SHT31;52585;47.566;19.056;2023-03-24T04:47:51;9.23;66.76
65824;SHT31;52585;47.566;19.056;2023-03-24T04:50:34;9.20;66.62
65824;SHT31;52585;47.566;19.056;2023-03-24T04:53:05;9.18;66.60
65824;SHT31;52585;47.566;19.056;2023-03-24T04:58:28;9.12;66.89
65824;SHT31;52585;47.566;19.056;2023-03-24T05:00:54;9.10;66.74
65824;SHT31;52585;47.566;19.056;2023-03-24T05:03:20;9.07;66.87
65824;SHT31;52585;47.566;19.056;2023-03-24T05:05:48;9.06;67.17
65824;SHT31;52585;47.566;19.056;2023-03-24T05:08:15;9.05;67.32
65824;SHT31;52585;47.566;19.056;2023-03-24T05:10:43;9.05;67.42
65824;SHT31;52585;47.566;19.056;2023-03-24T05:13:10;9.06;67.46
65824;SHT31;52585;47.566;19.056;2023-03-24T05:15:37;9.08;67.43
65824;SHT31;52585;47.566;19.056;2023-03-24T05:18:04;9.09;67.64
65824;SHT31;52585;47.566;19.056;2023-03-24T05:20:30;9.11;67.37
65824;SHT31;52585;47.566;19.056;2023-03-24T05:22:56;9.11;67.30
65824;SHT31;52585;47.566;19.056;2023-03-24T05:25:22;9.10;67.06
65824;SHT31;52585;47.566;19.056;2023-03-24T05:27:48;9.08;67.02
65824;SHT31;52585;47.566;19.056;2023-03-24T05:30:14;9.06;67.11
65824;SHT31;52585;47.566;19.056;2023-03-24T05:32:41;9.08;67.10
65824;SHT31;52585;47.566;19.056;2023-03-24T05:35:07;9.10;67.15
65824;SHT31;52585;47.566;19.056;2023-03-24T05:37:33;9.12;67.59
65824;SHT31;52585;47.566;19.056;2023-03-24T05:39:59;9.15;67.72
65824;SHT31;52585;47.566;19.056;2023-03-24T05:42:25;9.17;67.73
65824;SHT31;52585;47.566;19.056;2023-03-24T05:44:50;9.21;67.82
65824;SHT31;52585;47.566;19.056;2023-03-24T05:47:16;9.27;67.97
65824;SHT31;52585;47.566;19.056;2023-03-24T05:49:46;9.31;68.14
65824;SHT31;52585;47.566;19.056;2023-03-24T05:52:12;9.36;68.24
65824;SHT31;52585;47.566;19.056;2023-03-24T05:54:40;9.43;68.09
65824;SHT31;52585;47.566;19.056;2023-03-24T05:57:07;9.50;68.04
65824;SHT31;52585;47.566;19.056;2023-03-24T05:59:40;9.56;68.12
65824;SHT31;52585;47.566;19.056;2023-03-24T06:02:06;9.61;68.13
65824;SHT31;52585;47.566;19.056;2023-03-24T06:04:33;9.66;67.97
65824;SHT31;52585;47.566;19.056;2023-03-24T06:06:59;9.72;68.04
65824;SHT31;52585;47.566;19.056;2023-03-24T06:09:27;9.77;68.03
65824;SHT31;52585;47.566;19.056;2023-03-24T06:12:03;9.83;68.03
65824;SHT31;52585;47.566;19.056;2023-03-24T06:14:30;9.89;68.53
65824;SHT31;52585;47.566;19.056;2023-03-24T06:16:57;9.95;68.32
65824;SHT31;52585;47.566;19.056;2023-03-24T06:19:26;10.02;68.43
65824;SHT31;52585;47.566;19.056;2023-03-24T06:21:55;10.08;67.95
65824;SHT31;52585;47.566;19.056;2023-03-24T06:24:25;10.15;67.96
65824;SHT31;52585;47.566;19.056;2023-03-24T06:26:51;10.19;67.49
65824;SHT31;52585;47.566;19.056;2023-03-24T06:29:17;10.26;67.28
65824;SHT31;52585;47.566;19.056;2023-03-24T06:31:44;10.32;67.94
65824;SHT31;52585;47.566;19.056;2023-03-24T06:34:10;10.39;68.60
65824;SHT31;52585;47.566;19.056;2023-03-24T06:36:36;10.46;68.66
65824;SHT31;52585;47.566;19.056;2023-03-24T06:39:02;10.54;68.19
65824;SHT31;52585;47.566;19.056;2023-03-24T06:41:31;10.64;67.65
65824;SHT31;52585;47.566;19.056;2023-03-24T06:43:57;10.73;67.28
65824;SHT31;52585;47.566;19.056;2023-03-24T06:46:23;10.82;67.07
65824;SHT31;52585;47.566;19.056;2023-03-24T06:48:49;10.92;66.79
65824;SHT31;52585;47.566;19.056;2023-03-24T06:51:15;11.01;66.27
65824;SHT31;52585;47.566;19.056;2023-03-24T06:53:41;11.09;66.26
65824;SHT31;52585;47.566;19.056;2023-03-24T06:56:09;11.20;66.38
65824;SHT31;52585;47.566;19.056;2023-03-24T06:58:41;11.29;66.06
65824;SHT31;52585;47.566;19.056;2023-03-24T07:01:08;11.38;65.69
65824;SHT31;52585;47.566;19.056;2023-03-24T07:03:34;11.47;65.53
65824;SHT31;52585;47.566;19.056;2023-03-24T07:06:04;11.56;65.23
65824;SHT31;52585;47.566;19.056;2023-03-24T07:08:33;11.65;65.18
65824;SHT31;52585;47.566;19.056;2023-03-24T07:11:00;11.74;64.94
65824;SHT31;52585;47.566;19.056;2023-03-24T07:13:30;11.83;64.75
65824;SHT31;52585;47.566;19.056;2023-03-24T07:15:56;11.91;64.58
65824;SHT31;52585;47.566;19.056;2023-03-24T07:18:22;12.00;64.56
65824;SHT31;52585;47.566;19.056;2023-03-24T07:20:47;12.09;64.37
65824;SHT31;52585;47.566;19.056;2023-03-24T07:23:13;12.19;63.95
65824;SHT31;52585;47.566;19.056;2023-03-24T07:25:39;12.27;63.84
65824;SHT31;52585;47.566;19.056;2023-03-24T07:28:05;12.34;63.61
65824;SHT31;52585;47.566;19.056;2023-03-24T07:30:32;12.42;63.50
65824;SHT31;52585;47.566;19.056;2023-03-24T07:33:00;12.51;63.40
65824;SHT31;52585;47.566;19.056;2023-03-24T07:35:27;12.60;62.87
65824;SHT31;52585;47.566;19.056;2023-03-24T07:38:00;12.68;62.61
65824;SHT31;52585;47.566;19.056;2023-03-24T07:40:26;12.76;62.39
65824;SHT31;52585;47.566;19.056;2023-03-24T07:42:54;12.84;62.31
65824;SHT31;52585;47.566;19.056;2023-03-24T07:45:23;12.91;62.13
65824;SHT31;52585;47.566;19.056;2023-03-24T07:47:50;13.00;62.01
65824;SHT31;52585;47.566;19.056;2023-03-24T07:50:16;13.07;61.74
65824;SHT31;52585;47.566;19.056;2023-03-24T07:52:45;13.18;61.37
65824;SHT31;52585;47.566;19.056;2023-03-24T07:55:13;13.26;60.86
65824;SHT31;52585;47.566;19.056;2023-03-24T07:57:40;13.34;61.14
65824;SHT31;52585;47.566;19.056;2023-03-24T08:00:10;13.41;60.74
65824;SHT31;52585;47.566;19.056;2023-03-24T08:02:40;13.49;60.53
65824;SHT31;52585;47.566;19.056;2023-03-24T08:05:07;13.56;60.54
65824;SHT31;52585;47.566;19.056;2023-03-24T08:07:35;13.64;60.42
65824;SHT31;52585;47.566;19.056;2023-03-24T08:10:03;13.71;60.28
65824;SHT31;52585;47.566;19.056;2023-03-24T08:12:30;13.78;60.13
65824;SHT31;52585;47.566;19.056;2023-03-24T08:14:58;13.87;59.81
65824;SHT31;52585;47.566;19.056;2023-03-24T08:17:23;13.96;59.41
65824;SHT31;52585;47.566;19.056;2023-03-24T08:19:49;14.03;58.64
65824;SHT31;52585;47.566;19.056;2023-03-24T08:22:15;14.10;57.79
65824;SHT31;52585;47.566;19.056;2023-03-24T08:24:41;14.15;58.51
65824;SHT31;52585;47.566;19.056;2023-03-24T08:27:06;14.20;58.36
65824;SHT31;52585;47.566;19.056;2023-03-24T08:29:33;14.28;57.99
65824;SHT31;52585;47.566;19.056;2023-03-24T08:31:59;14.37;57.79
65824;SHT31;52585;47.566;19.056;2023-03-24T08:34:25;14.48;57.34
65824;SHT31;52585;47.566;19.056;2023-03-24T08:36:51;14.58;56.73
65824;SHT31;52585;47.566;19.056;2023-03-24T08:39:18;14.67;56.94
65824;SHT31;52585;47.566;19.056;2023-03-24T08:41:44;14.75;56.86
65824;SHT31;52585;47.566;19.056;2023-03-24T08:44:14;14.85;56.73
65824;SHT31;52585;47.566;19.056;2023-03-24T08:46:41;14.92;56.90
65824;SHT31;52585;47.566;19.056;2023-03-24T08:49:07;14.98;56.88
65824;SHT31;52585;47.566;19.056;2023-03-24T08:51:33;15.01;56.53
65824;SHT31;52585;47.566;19.056;2023-03-24T08:53:59;15.06;56.47
65824;SHT31;52585;47.566;19.056;2023-03-24T08:56:25;15.12;56.34
65824;SHT31;52585;47.566;19.056;2023-03-24T08:58:51;15.18;56.22
65824;SHT31;52585;47.566;19.056;2023-03-24T09:01:18;15.24;56.29
65824;SHT31;52585;47.566;19.056;2023-03-24T09:03:46;15.30;56.34
65824;SHT31;52585;47.566;19.056;2023-03-24T09:06:13;15.36;56.28
65824;SHT31;52585;47.566;19.056;2023-03-24T09:08:40;15.42;56.25
65824;SHT31;52585;47.566;19.056;2023-03-24T09:11:06;15.47;56.09
65824;SHT31;52585;47.566;19.056;2023-03-24T09:13:41;15.53;55.94
65824;SHT31;52585;47.566;19.056;2023-03-24T09:16:07;15.58;55.86
65824;SHT31;52585;47.566;19.056;2023-03-24T09:18:33;15.64;55.76
65824;SHT31;52585;47.566;19.056;2023-03-24T09:21:00;15.69;55.70
65824;SHT31;52585;47.566;19.056;2023-03-24T09:23:26;15.75;55.62
65824;SHT31;52585;47.566;19.056;2023-03-24T09:25:53;15.82;54.98
65824;SHT31;52585;47.566;19.056;2023-03-24T09:28:19;15.93;53.93
65824;SHT31;52585;47.566;19.056;2023-03-24T09:30:46;16.03;54.32
65824;SHT31;52585;47.566;19.056;2023-03-24T09:33:12;16.10;54.27
65824;SHT31;52585;47.566;19.056;2023-03-24T09:35:38;16.18;53.59
65824;SHT31;52585;47.566;19.056;2023-03-24T09:38:04;16.28;53.34
65824;SHT31;52585;47.566;19.056;2023-03-24T09:40:35;16.37;53.39
65824;SHT31;52585;47.566;19.056;2023-03-24T09:45:33;16.55;53.44
65824;SHT31;52585;47.566;19.056;2023-03-24T09:48:18;16.64;53.32
65824;SHT31;52585;47.566;19.056;2023-03-24T09:53:45;16.87;52.14
65824;SHT31;52585;47.566;19.056;2023-03-24T09:56:16;16.98;52.35
65824;SHT31;52585;47.566;19.056;2023-03-24T09:58:52;17.03;52.84
65824;SHT31;52585;47.566;19.056;2023-03-24T10:01:29;17.08;52.92
65824;SHT31;52585;47.566;19.056;2023-03-24T10:03:58;17.16;52.39
65824;SHT31;52585;47.566;19.056;2023-03-24T10:06:32;17.25;51.98
65824;SHT31;52585;47.566;19.056;2023-03-24T10:11:59;17.43;51.58
65824;SHT31;52585;47.566;19.056;2023-03-24T10:17:46;17.61;51.78
65824;SHT31;52585;47.566;19.056;2023-03-24T10:29:33;17.79;51.91
65824;SHT31;52585;47.566;19.056;2023-03-24T10:34:41;17.80;51.90
65824;SHT31;52585;47.566;19.056;2023-03-24T10:37:12;17.83;51.96
65824;SHT31;52585;47.566;19.056;2023-03-24T10:39:40;17.89;52.03
65824;SHT31;52585;47.566;19.056;2023-03-24T10:42:08;17.94;51.95
65824;SHT31;52585;47.566;19.056;2023-03-24T10:44:43;18.03;51.74
65824;SHT31;52585;47.566;19.056;2023-03-24T10:47:15;18.10;51.89
65824;SHT31;52585;47.566;19.056;2023-03-24T10:52:27;18.30;50.75
65824;SHT31;52585;47.566;19.056;2023-03-24T10:55:04;18.42;50.19
65824;SHT31;52585;47.566;19.056;2023-03-24T10:57:31;18.53;49.90
65824;SHT31;52585;47.566;19.056;2023-03-24T11:00:05;18.66;50.24
65824;SHT31;52585;47.566;19.056;2023-03-24T11:02:43;18.83;50.29
65824;SHT31;52585;47.566;19.056;2023-03-24T11:05:19;18.96;49.12
65824;SHT31;52585;47.566;19.056;2023-03-24T11:07:48;19.02;49.83
65824;SHT31;52585;47.566;19.056;2023-03-24T11:10:16;19.06;48.02
65824;SHT31;52585;47.566;19.056;2023-03-24T11:20:34;19.23;48.73
65824;SHT31;52585;47.566;19.056;2023-03-24T11:26:13;19.29;48.76
65824;SHT31;52585;47.566;19.056;2023-03-24T11:28:55;19.35;48.39
65824;SHT31;52585;47.566;19.056;2023-03-24T11:31:29;19.43;47.99
65824;SHT31;52585;47.566;19.056;2023-03-24T11:39:17;19.56;48.41
65824;SHT31;52585;47.566;19.056;2023-03-24T11:47:07;19.70;46.29
65824;SHT31;52585;47.566;19.056;2023-03-24T11:49:37;19.75;46.99
65824;SHT31;52585;47.566;19.056;2023-03-24T11:55:14;19.90;45.60
65824;SHT31;52585;47.566;19.056;2023-03-24T11:57:55;19.97;46.88
65824;SHT31;52585;47.566;19.056;2023-03-24T12:00:28;20.04;46.72
65824;SHT31;52585;47.566;19.056;2023-03-24T12:11:48;20.15;45.97
65824;SHT31;52585;47.566;19.056;2023-03-24T12:14:18;20.20;46.17
65824;SHT31;52585;47.566;19.056;2023-03-24T12:17:14;20.25;45.22
65824;SHT31;52585;47.566;19.056;2023-03-24T12:22:52;20.37;45.97
65824;SHT31;52585;47.566;19.056;2023-03-24T12:26:04;20.43;45.98
65824;SHT31;52585;47.566;19.056;2023-03-24T12:31:37;20.49;44.47
65824;SHT31;52585;47.566;19.056;2023-03-24T12:39:55;20.60;44.24
65824;SHT31;52585;47.566;19.056;2023-03-24T12:42:43;20.63;43.92
65824;SHT31;52585;47.566;19.056;2023-03-24T12:45:17;20.64;44.04
65824;SHT31;52585;47.566;19.056;2023-03-24T12:50:40;20.71;44.50
65824;SHT31;52585;47.566;19.056;2023-03-24T12:56:13;20.79;44.23
65824;SHT31;52585;47.566;19.056;2023-03-24T13:12:31;20.89;43.33
65824;SHT31;52585;47.566;19.056;2023-03-24T13:15:24;20.91;43.46
65824;SHT31;52585;47.566;19.056;2023-03-24T13:18:17;20.96;43.16
65824;SHT31;52585;47.566;19.056;2023-03-24T13:21:10;21.04;43.13
65824;SHT31;52585;47.566;19.056;2023-03-24T13:23:55;21.11;42.78
65824;SHT31;52585;47.566;19.056;2023-03-24T13:26:36;21.20;42.49
65824;SHT31;52585;47.566;19.056;2023-03-24T13:29:13;21.26;42.93
65824;SHT31;52585;47.566;19.056;2023-03-24T13:35:16;21.31;42.08
65824;SHT31;52585;47.566;19.056;2023-03-24T13:40:52;21.36;42.43
65824;SHT31;52585;47.566;19.056;2023-03-24T13:43:23;21.36;42.53
65824;SHT31;52585;47.566;19.056;2023-03-24T13:45:58;21.37;42.54
65824;SHT31;52585;47.566;19.056;2023-03-24T13:48:35;21.40;42.53
65824;SHT31;52585;47.566;19.056;2023-03-24T13:53:56;21.38;42.18
65824;SHT31;52585;47.566;19.056;2023-03-24T13:56:53;21.36;42.39
65824;SHT31;52585;47.566;19.056;2023-03-24T14:05:05;21.35;42.29
65824;SHT31;52585;47.566;19.056;2023-03-24T14:10:26;21.37;42.23
65824;SHT31;52585;47.566;19.056;2023-03-24T14:28:48;21.34;41.61
65824;SHT31;52585;47.566;19.056;2023-03-24T14:31:22;21.35;41.89
65824;SHT31;52585;47.566;19.056;2023-03-24T14:34:13;21.35;42.06
65824;SHT31;52585;47.566;19.056;2023-03-24T14:36:56;21.34;42.02
65824;SHT31;52585;47.566;19.056;2023-03-24T14:45:03;21.17;42.73
65824;SHT31;52585;47.566;19.056;2023-03-24T14:47:52;21.13;42.84
65824;SHT31;52585;47.566;19.056;2023-03-24T14:50:27;21.09;43.29
65824;SHT31;52585;47.566;19.056;2023-03-24T14:53:00;21.07;43.08
65824;SHT31;52585;47.566;19.056;2023-03-24T14:55:28;21.02;43.15
65824;SHT31;52585;47.566;19.056;2023-03-24T14:57:58;20.98;43.04
65824;SHT31;52585;47.566;19.056;2023-03-24T15:00:39;20.92;43.09
65824;SHT31;52585;47.566;19.056;2023-03-24T15:03:22;20.88;42.70
65824;SHT31;52585;47.566;19.056;2023-03-24T15:08:50;20.86;43.19
65824;SHT31;52585;47.566;19.056;2023-03-24T15:11:25;20.86;44.22
65824;SHT31;52585;47.566;19.056;2023-03-24T15:13:55;20.87;44.24
65824;SHT31;52585;47.566;19.056;2023-03-24T15:16:26;20.87;44.41
65824;SHT31;52585;47.566;19.056;2023-03-24T15:18:58;20.88;45.72
65824;SHT31;52585;47.566;19.056;2023-03-24T15:21:32;20.90;45.78
65824;SHT31;52585;47.566;19.056;2023-03-24T15:29:30;20.87;46.48
65824;SHT31;52585;47.566;19.056;2023-03-24T15:31:57;20.86;46.31
65824;SHT31;52585;47.566;19.056;2023-03-24T15:34:30;20.82;45.89
65824;SHT31;52585;47.566;19.056;2023-03-24T15:37:04;20.78;45.46
65824;SHT31;52585;47.566;19.056;2023-03-24T15:39:47;20.73;45.35
65824;SHT31;52585;47.566;19.056;2023-03-24T15:42:22;20.69;45.29
65824;SHT31;52585;47.566;19.056;2023-03-24T15:44:50;20.67;46.83
65824;SHT31;52585;47.566;19.056;2023-03-24T15:47:26;20.67;49.26
65824;SHT31;52585;47.566;19.056;2023-03-24T15:49:56;20.69;50.06
65824;SHT31;52585;47.566;19.056;2023-03-24T15:57:58;20.68;51.00
65824;SHT31;52585;47.566;19.056;2023-03-24T16:00:29;20.66;49.73
65824;SHT31;52585;47.566;19.056;2023-03-24T16:03:06;20.58;49.31
65824;SHT31;52585;47.566;19.056;2023-03-24T16:05:33;20.52;48.22
65824;SHT31;52585;47.566;19.056;2023-03-24T16:08:03;20.47;47.80
65824;SHT31;52585;47.566;19.056;2023-03-24T16:10:55;20.41;47.30
65824;SHT31;52585;47.566;19.056;2023-03-24T16:13:29;20.37;47.25
65824;SHT31;52585;47.566;19.056;2023-03-24T16:18:29;20.32;47.95
65824;SHT31;52585;47.566;19.056;2023-03-24T16:21:00;20.29;47.11
65824;SHT31;52585;47.566;19.056;2023-03-24T16:23:35;20.27;47.36
65824;SHT31;52585;47.566;19.056;2023-03-24T16:26:01;20.23;47.44
65824;SHT31;52585;47.566;19.056;2023-03-24T16:28:27;20.22;47.68
65824;SHT31;52585;47.566;19.056;2023-03-24T16:31:02;20.19;47.58
65824;SHT31;52585;47.566;19.056;2023-03-24T16:33:30;20.16;47.23
65824;SHT31;52585;47.566;19.056;2023-03-24T16:35:58;20.12;47.07
65824;SHT31;52585;47.566;19.056;2023-03-24T16:38:25;20.08;46.47
65824;SHT31;52585;47.566;19.056;2023-03-24T16:40:51;20.04;46.31
65824;SHT31;52585;47.566;19.056;2023-03-24T16:43:20;20.00;46.22
65824;SHT31;52585;47.566;19.056;2023-03-24T16:45:47;19.97;49.11
65824;SHT31;52585;47.566;19.056;2023-03-24T16:48:15;19.96;48.83
65824;SHT31;52585;47.566;19.056;2023-03-24T16:50:42;19.95;49.28
65824;SHT31;52585;47.566;19.056;2023-03-24T16:53:14;19.96;49.22
65824;SHT31;52585;47.566;19.056;2023-03-24T16:55:40;19.98;47.86
65824;SHT31;52585;47.566;19.056;2023-03-24T16:58:06;20.03;48.68
65824;SHT31;52585;47.566;19.056;2023-03-24T17:00:35;20.06;47.94
65824;SHT31;52585;47.566;19.056;2023-03-24T17:03:02;20.10;48.58
65824;SHT31;52585;47.566;19.056;2023-03-24T17:08:08;20.15;47.99
65824;SHT31;52585;47.566;19.056;2023-03-24T17:10:34;20.20;48.13
65824;SHT31;52585;47.566;19.056;2023-03-24T17:13:00;20.25;47.56
65824;SHT31;52585;47.566;19.056;2023-03-24T17:15:28;20.21;46.01
65824;SHT31;52585;47.566;19.056;2023-03-24T17:17:55;20.15;45.78
65824;SHT31;52585;47.566;19.056;2023-03-24T17:20:21;20.08;45.34
65824;SHT31;52585;47.566;19.056;2023-03-24T17:22:49;20.02;45.31
65824;SHT31;52585;47.566;19.056;2023-03-24T17:25:20;19.95;45.43
65824;SHT31;52585;47.566;19.056;2023-03-24T17:27:47;19.90;45.41
65824;SHT31;52585;47.566;19.056;2023-03-24T17:30:20;19.86;45.86
65824;SHT31;52585;47.566;19.056;2023-03-24T17:32:48;19.81;45.71
65824;SHT31;52585;47.566;19.056;2023-03-24T17:35:15;19.75;45.31
65824;SHT31;52585;47.566;19.056;2023-03-24T17:37:44;19.70;45.60
65824;SHT31;52585;47.566;19.056;2023-03-24T17:40:13;19.65;45.45
65824;SHT31;52585;47.566;19.056;2023-03-24T17:42:42;19.59;45.44
65824;SHT31;52585;47.566;19.056;2023-03-24T17:45:11;19.55;45.77
65824;SHT31;52585;47.566;19.056;2023-03-24T17:47:40;19.48;46.07
65824;SHT31;52585;47.566;19.056;2023-03-24T17:50:07;19.42;45.53
65824;SHT31;52585;47.566;19.056;2023-03-24T17:52:35;19.37;45.58
65824;SHT31;52585;47.566;19.056;2023-03-24T17:55:09;19.31;45.43
65824;SHT31;52585;47.566;19.056;2023-03-24T17:57:38;19.26;45.59
65824;SHT31;52585;47.566;19.056;2023-03-24T18:00:08;19.20;45.40
65824;SHT31;52585;47.566;19.056;2023-03-24T18:02:37;19.17;45.39
65824;SHT31;52585;47.566;19.056;2023-03-24T18:05:05;19.12;45.53
65824;SHT31;52585;47.566;19.056;2023-03-24T18:07:33;19.08;45.40
65824;SHT31;52585;47.566;19.056;2023-03-24T18:10:00;19.03;45.32
65824;SHT31;52585;47.566;19.056;2023-03-24T18:12:28;18.98;45.19
65824;SHT31;52585;47.566;19.056;2023-03-24T18:14:55;18.92;45.39
65824;SHT31;52585;47.566;19.056;2023-03-24T18:17:21;18.87;45.52
65824;SHT31;52585;47.566;19.056;2023-03-24T18:19:47;18.82;46.35
65824;SHT31;52585;47.566;19.056;2023-03-24T18:22:14;18.78;47.33
65824;SHT31;52585;47.566;19.056;2023-03-24T18:24:42;18.73;47.05
65824;SHT31;52585;47.566;19.056;2023-03-24T18:27:09;18.67;47.05
65824;SHT31;52585;47.566;19.056;2023-03-24T18:29:36;18.57;46.68
65824;SHT31;52585;47.566;19.056;2023-03-24T18:32:04;18.50;46.67
65824;SHT31;52585;47.566;19.056;2023-03-24T18:34:31;18.44;46.66
65824;SHT31;52585;47.566;19.056;2023-03-24T18:36:57;18.34;46.79
65824;SHT31;52585;47.566;19.056;2023-03-24T18:39:23;18.29;47.24
65824;SHT31;52585;47.566;19.056;2023-03-24T18:41:50;18.22;47.11
65824;SHT31;52585;47.566;19.056;2023-03-24T18:44:18;18.18;46.99
65824;SHT31;52585;47.566;19.056;2023-03-24T18:46:45;18.15;47.04
65824;SHT31;52585;47.566;19.056;2023-03-24T18:49:11;18.13;47.51
65824;SHT31;52585;47.566;19.056;2023-03-24T18:51:38;18.09;47.95
65824;SHT31;52585;47.566;19.056;2023-03-24T18:54:05;18.10;47.96
65824;SHT31;52585;47.566;19.056;2023-03-24T18:56:31;18.07;48.07
65824;SHT31;52585;47.566;19.056;2023-03-24T18:59:01;18.03;48.68
65824;SHT31;52585;47.566;19.056;2023-03-24T19:01:27;18.02;48.42
65824;SHT31;52585;47.566;19.056;2023-03-24T19:03:54;17.94;48.55
65824;SHT31;52585;47.566;19.056;2023-03-24T19:06:21;17.91;49.67
65824;SHT31;52585;47.566;19.056;2023-03-24T19:08:55;17.93;49.63
65824;SHT31;52585;47.566;19.056;2023-03-24T19:11:23;17.93;49.97
65824;SHT31;52585;47.566;19.056;2023-03-24T19:13:50;17.94;49.66
65824;SHT31;52585;47.566;19.056;2023-03-24T19:16:17;17.92;49.88